首页
METAR-TAF:

METAR-TAF

机场 :

格倫興, 瑞士

纬度: 47-10-53N, 经度: 007-24-59E, 海拔: 430米

当前天气观测

该预报发布于11分钟前的21:20 UTC
风速5节,风向东北
温度 14°C
湿度 94%
气压 1007 hPa
能见度10公里或以上
少量云层高于2000英尺
散云层高于3900英尺
小雨

METAR: LSZG 062120Z AUTO 04005KT 9999 -RA FEW020 SCT039 14/13 Q1007

时间: 23:31 (21:31 UTC)

预报

该预报发布于2小时和36分钟前的18:55 UTC
预报有效从06日的 18点(UTC)到 06日的 24点(UTC)
风速5节,风向南转西南
能见度10公里或以上
多云层高于4600英尺
短暂存在
从 06日的 18点(UTC)到 06日的 24点(UTC)
阵雨
几率 30% :
短暂存在
从 06日的 18点(UTC)到 06日的 24点(UTC)
能見度: 4500
少量云层高于4000英尺, 塔状积云.
大阵雨

TAF: LSZG 061855Z 0618/0624 21005KT 9999 BKN046 TEMPO 0618/0624 SHRA PROB30 TEMPO 0618/0624 4500 +SHRA FEW040TCU

超过4000个机场的气象观测和天气预报(METAR&TAF报告)。

可查询的气象台以黄色和红色小点在地图上表示。

将鼠标移到小点上方,可查看气象台名称。

然后点击查看天气观测和预报。

如需切换地图:点击带黑十字的绿色按钮放大地图;点击带横线的绿色按钮缩小地图;或者点击绿色箭头查看邻近地区的地图。


METAR-TAF: